Stallings, North Carolina
Current Conditions -  °F | °C
As of 10:53 PM on Wednesday 28 Jan 2015 (Local Time) from KEQY Reporting Station
Clear Clear  
Wind Chill: 30°   Ceiling: Unl
Heat Index: 30°   Visibility: 10mi
Dew Point: 21°   Wind: 3mph
Humidity: 69%   Direction: 220°SW
Pressure: 30.32"   Gusts: NA
Location:  35.082°N, 80.6782°W
Report Text: KEQY 290353Z AUTO 22003KT 10SM CLR M01/M06 A3032 RMK AO2 SLP288 T10111061
Loading
Personal Weather Stations






























Interactive Weather Map New forecast layout! Learn more

10-Day Weather Forecast

Advertisements
Track Severe Weather on mobile